sensor_id;sensor_type;location;lat;lon;timestamp;pressure;altitude;pressure_sealevel;temperature;humidity
20424;BME280;10371;49.042;8.002;2023-05-29T00:00:57;99898.06;;;16.20;67.12
20424;BME280;10371;49.042;8.002;2023-05-29T00:01:57;99899.06;;;16.19;66.98
20424;BME280;10371;49.042;8.002;2023-05-29T00:02:58;99900.69;;;16.20;66.92
20424;BME280;10371;49.042;8.002;2023-05-29T00:03:58;99900.69;;;16.20;67.01
20424;BME280;10371;49.042;8.002;2023-05-29T00:04:58;99909.72;;;16.18;66.97
20424;BME280;10371;49.042;8.002;2023-05-29T00:05:59;99903.16;;;16.14;66.99
20424;BME280;10371;49.042;8.002;2023-05-29T00:07:01;99901.47;;;16.13;67.46
20424;BME280;10371;49.042;8.002;2023-05-29T00:08:01;99896.88;;;16.06;67.51
20424;BME280;10371;49.042;8.002;2023-05-29T00:09:01;99908.19;;;16.07;67.58
20424;BME280;10371;49.042;8.002;2023-05-29T00:10:02;99902.78;;;16.08;67.35
20424;BME280;10371;49.042;8.002;2023-05-29T00:11:02;99895.25;;;16.14;66.95
20424;BME280;10371;49.042;8.002;2023-05-29T00:12:03;99900.00;;;16.10;67.06
20424;BME280;10371;49.042;8.002;2023-05-29T00:13:03;99899.81;;;16.03;67.33
20424;BME280;10371;49.042;8.002;2023-05-29T00:14:03;99887.13;;;15.99;67.68
20424;BME280;10371;49.042;8.002;2023-05-29T00:15:04;99903.88;;;15.98;67.82
20424;BME280;10371;49.042;8.002;2023-05-29T00:16:05;99900.94;;;16.01;67.50
20424;BME280;10371;49.042;8.002;2023-05-29T00:17:06;99896.50;;;16.01;67.39
20424;BME280;10371;49.042;8.002;2023-05-29T00:18:06;99907.69;;;16.03;67.29
20424;BME280;10371;49.042;8.002;2023-05-29T00:19:06;99900.13;;;16.00;67.48
20424;BME280;10371;49.042;8.002;2023-05-29T00:20:09;99896.81;;;15.98;67.54
20424;BME280;10371;49.042;8.002;2023-05-29T00:21:12;99893.38;;;15.98;67.23
20424;BME280;10371;49.042;8.002;2023-05-29T00:22:13;99888.63;;;16.01;67.33
20424;BME280;10371;49.042;8.002;2023-05-29T00:23:13;99899.63;;;15.97;67.48
20424;BME280;10371;49.042;8.002;2023-05-29T00:24:14;99894.19;;;15.98;67.54
20424;BME280;10371;49.042;8.002;2023-05-29T00:25:15;99880.56;;;15.95;67.35
20424;BME280;10371;49.042;8.002;2023-05-29T00:26:15;99898.50;;;15.99;67.34
20424;BME280;10371;49.042;8.002;2023-05-29T00:27:16;99898.78;;;15.96;67.52
20424;BME280;10371;49.042;8.002;2023-05-29T00:28:17;99884.69;;;15.97;67.28
20424;BME280;10371;49.042;8.002;2023-05-29T00:29:17;99886.84;;;16.02;67.09
20424;BME280;10371;49.042;8.002;2023-05-29T00:30:17;99892.75;;;16.04;66.91
20424;BME280;10371;49.042;8.002;2023-05-29T00:31:18;99877.47;;;15.99;66.79
20424;BME280;10371;49.042;8.002;2023-05-29T00:32:18;99886.69;;;16.03;67.11
20424;BME280;10371;49.042;8.002;2023-05-29T00:33:18;99881.28;;;16.05;66.72
20424;BME280;10371;49.042;8.002;2023-05-29T00:34:19;99893.28;;;16.07;66.58
20424;BME280;10371;49.042;8.002;2023-05-29T00:35:20;99891.97;;;16.12;66.55
20424;BME280;10371;49.042;8.002;2023-05-29T00:36:20;99888.34;;;16.13;66.27
20424;BME280;10371;49.042;8.002;2023-05-29T00:37:22;99890.00;;;16.14;66.20
20424;BME280;10371;49.042;8.002;2023-05-29T00:38:22;99896.75;;;16.16;66.13
20424;BME280;10371;49.042;8.002;2023-05-29T00:39:22;99891.00;;;16.21;66.03
20424;BME280;10371;49.042;8.002;2023-05-29T00:40:23;99888.56;;;16.19;65.93
20424;BME280;10371;49.042;8.002;2023-05-29T00:41:23;99891.69;;;16.23;65.76
20424;BME280;10371;49.042;8.002;2023-05-29T00:42:24;99888.38;;;16.21;65.73
20424;BME280;10371;49.042;8.002;2023-05-29T00:43:24;99887.91;;;16.25;65.46
20424;BME280;10371;49.042;8.002;2023-05-29T00:44:24;99885.31;;;16.34;65.14
20424;BME280;10371;49.042;8.002;2023-05-29T00:45:25;99894.69;;;16.36;65.17
20424;BME280;10371;49.042;8.002;2023-05-29T00:46:26;99888.75;;;16.34;65.05
20424;BME280;10371;49.042;8.002;2023-05-29T00:47:27;99885.63;;;16.30;65.26
20424;BME280;10371;49.042;8.002;2023-05-29T00:48:27;99891.72;;;16.31;65.20
20424;BME280;10371;49.042;8.002;2023-05-29T00:49:28;99895.16;;;16.31;65.33
20424;BME280;10371;49.042;8.002;2023-05-29T00:50:28;99890.22;;;16.28;65.19
20424;BME280;10371;49.042;8.002;2023-05-29T00:51:30;99892.50;;;16.23;65.44
20424;BME280;10371;49.042;8.002;2023-05-29T00:52:31;99891.53;;;16.24;65.38
20424;BME280;10371;49.042;8.002;2023-05-29T00:53:32;99894.50;;;16.29;65.21
20424;BME280;10371;49.042;8.002;2023-05-29T00:54:33;99891.53;;;16.24;65.29
20424;BME280;10371;49.042;8.002;2023-05-29T00:55:34;99890.53;;;16.25;65.37
20424;BME280;10371;49.042;8.002;2023-05-29T00:56:35;99896.97;;;16.31;65.17
20424;BME280;10371;49.042;8.002;2023-05-29T00:57:36;99901.41;;;16.30;65.04
20424;BME280;10371;49.042;8.002;2023-05-29T00:58:37;99886.78;;;16.28;65.05
20424;BME280;10371;49.042;8.002;2023-05-29T00:59:39;99889.22;;;16.29;65.07
20424;BME280;10371;49.042;8.002;2023-05-29T01:00:39;99887.09;;;16.25;65.31
20424;BME280;10371;49.042;8.002;2023-05-29T01:01:40;99895.44;;;16.20;65.61
20424;BME280;10371;49.042;8.002;2023-05-29T01:02:42;99894.31;;;16.23;65.35
20424;BME280;10371;49.042;8.002;2023-05-29T01:03:45;99894.97;;;16.25;65.13
20424;BME280;10371;49.042;8.002;2023-05-29T01:04:45;99891.81;;;16.21;65.38
20424;BME280;10371;49.042;8.002;2023-05-29T01:05:46;99881.13;;;16.15;65.48
20424;BME280;10371;49.042;8.002;2023-05-29T01:06:46;99897.22;;;16.12;65.62
20424;BME280;10371;49.042;8.002;2023-05-29T01:07:46;99892.47;;;16.15;65.61
20424;BME280;10371;49.042;8.002;2023-05-29T01:08:47;99890.34;;;16.11;65.50
20424;BME280;10371;49.042;8.002;2023-05-29T01:09:47;99893.28;;;16.07;65.68
20424;BME280;10371;49.042;8.002;2023-05-29T01:10:51;99897.38;;;16.10;65.62
20424;BME280;10371;49.042;8.002;2023-05-29T01:13:31;99898.22;;;16.11;65.62
20424;BME280;10371;49.042;8.002;2023-05-29T01:14:48;99894.25;;;16.06;65.65
20424;BME280;10371;49.042;8.002;2023-05-29T01:15:55;99898.31;;;16.01;65.87
20424;BME280;10371;49.042;8.002;2023-05-29T01:17:11;99903.06;;;15.97;65.91
20424;BME280;10371;49.042;8.002;2023-05-29T01:20:48;99899.25;;;15.92;66.24
20424;BME280;10371;49.042;8.002;2023-05-29T01:22:05;99896.13;;;15.88;66.29
20424;BME280;10371;49.042;8.002;2023-05-29T01:24:49;99895.78;;;15.83;66.49
20424;BME280;10371;49.042;8.002;2023-05-29T01:27:15;99904.41;;;15.75;66.95
20424;BME280;10371;49.042;8.002;2023-05-29T01:28:20;99898.72;;;15.80;66.58
20424;BME280;10371;49.042;8.002;2023-05-29T01:29:23;99893.09;;;15.75;66.64
20424;BME280;10371;49.042;8.002;2023-05-29T01:30:27;99892.44;;;15.73;66.73
20424;BME280;10371;49.042;8.002;2023-05-29T01:31:28;99895.72;;;15.75;66.51
20424;BME280;10371;49.042;8.002;2023-05-29T01:32:30;99885.06;;;15.76;66.55
20424;BME280;10371;49.042;8.002;2023-05-29T01:33:32;99893.41;;;15.72;66.84
20424;BME280;10371;49.042;8.002;2023-05-29T01:34:32;99884.16;;;15.68;66.88
20424;BME280;10371;49.042;8.002;2023-05-29T01:35:33;99894.06;;;15.74;66.44
20424;BME280;10371;49.042;8.002;2023-05-29T01:36:33;99881.63;;;15.76;66.40
20424;BME280;10371;49.042;8.002;2023-05-29T01:37:33;99888.81;;;15.74;66.57
20424;BME280;10371;49.042;8.002;2023-05-29T01:38:34;99883.22;;;15.69;66.71
20424;BME280;10371;49.042;8.002;2023-05-29T01:39:35;99887.50;;;15.70;66.53
20424;BME280;10371;49.042;8.002;2023-05-29T01:40:35;99896.19;;;15.70;66.57
20424;BME280;10371;49.042;8.002;2023-05-29T01:41:36;99887.09;;;15.64;66.89
20424;BME280;10371;49.042;8.002;2023-05-29T01:42:38;99884.28;;;15.58;67.04
20424;BME280;10371;49.042;8.002;2023-05-29T01:43:39;99878.84;;;15.59;66.79
20424;BME280;10371;49.042;8.002;2023-05-29T01:44:39;99880.84;;;15.65;66.57
20424;BME280;10371;49.042;8.002;2023-05-29T01:45:40;99887.50;;;15.70;66.42
20424;BME280;10371;49.042;8.002;2023-05-29T01:46:41;99884.16;;;15.68;66.66
20424;BME280;10371;49.042;8.002;2023-05-29T01:47:42;99883.16;;;15.60;66.79
20424;BME280;10371;49.042;8.002;2023-05-29T01:48:43;99885.41;;;15.55;66.96
20424;BME280;10371;49.042;8.002;2023-05-29T01:49:45;99882.63;;;15.57;66.85
20424;BME280;10371;49.042;8.002;2023-05-29T01:50:47;99882.63;;;15.57;66.72
20424;BME280;10371;49.042;8.002;2023-05-29T01:51:48;99886.22;;;15.56;66.80
20424;BME280;10371;49.042;8.002;2023-05-29T01:52:49;99880.97;;;15.56;66.69
20424;BME280;10371;49.042;8.002;2023-05-29T01:53:49;99880.16;;;15.55;66.69
20424;BME280;10371;49.042;8.002;2023-05-29T01:54:50;99878.22;;;15.57;66.45
20424;BME280;10371;49.042;8.002;2023-05-29T01:55:50;99894.66;;;15.68;66.21
20424;BME280;10371;49.042;8.002;2023-05-29T01:56:51;99888.09;;;15.63;66.30
20424;BME280;10371;49.042;8.002;2023-05-29T01:57:51;99885.09;;;15.58;66.49
20424;BME280;10371;49.042;8.002;2023-05-29T01:58:53;99887.88;;;15.57;66.68
20424;BME280;10371;49.042;8.002;2023-05-29T01:59:54;99887.00;;;15.48;67.07
20424;BME280;10371;49.042;8.002;2023-05-29T02:00:55;99887.97;;;15.47;67.01
20424;BME280;10371;49.042;8.002;2023-05-29T02:01:55;99886.34;;;15.46;67.07
20424;BME280;10371;49.042;8.002;2023-05-29T02:02:55;99887.28;;;15.45;67.10
20424;BME280;10371;49.042;8.002;2023-05-29T02:03:56;99884.69;;;15.45;67.13
20424;BME280;10371;49.042;8.002;2023-05-29T02:04:56;99883.53;;;15.48;66.92
20424;BME280;10371;49.042;8.002;2023-05-29T02:05:57;99887.16;;;15.47;67.02
20424;BME280;10371;49.042;8.002;2023-05-29T02:06:58;99881.38;;;15.43;67.25
20424;BME280;10371;49.042;8.002;2023-05-29T02:07:58;99880.34;;;15.36;67.48
20424;BME280;10371;49.042;8.002;2023-05-29T02:08:59;99877.88;;;15.34;67.69
20424;BME280;10371;49.042;8.002;2023-05-29T02:09:59;99878.03;;;15.33;67.65
20424;BME280;10371;49.042;8.002;2023-05-29T02:11:00;99883.41;;;15.49;66.85
20424;BME280;10371;49.042;8.002;2023-05-29T02:12:00;99881.09;;;15.46;66.95
20424;BME280;10371;49.042;8.002;2023-05-29T02:13:01;99877.25;;;15.40;67.30
20424;BME280;10371;49.042;8.002;2023-05-29T02:14:02;99879.53;;;15.35;67.53
20424;BME280;10371;49.042;8.002;2023-05-29T02:15:03;99876.69;;;15.29;67.79
20424;BME280;10371;49.042;8.002;2023-05-29T02:16:04;99884.19;;;15.24;67.74
20424;BME280;10371;49.042;8.002;2023-05-29T02:17:04;99878.81;;;15.25;67.75
20424;BME280;10371;49.042;8.002;2023-05-29T02:18:05;99880.75;;;15.23;67.63
20424;BME280;10371;49.042;8.002;2023-05-29T02:19:05;99877.66;;;15.28;67.50
20424;BME280;10371;49.042;8.002;2023-05-29T02:20:06;99878.50;;;15.28;67.59
20424;BME280;10371;49.042;8.002;2023-05-29T02:21:07;99875.19;;;15.26;67.49
20424;BME280;10371;49.042;8.002;2023-05-29T02:22:07;99880.13;;;15.29;67.55
20424;BME280;10371;49.042;8.002;2023-05-29T02:23:09;99883.06;;;15.26;67.33
20424;BME280;10371;49.042;8.002;2023-05-29T02:24:09;99883.22;;;15.25;67.61
20424;BME280;10371;49.042;8.002;2023-05-29T02:25:10;99885.16;;;15.23;67.59
20424;BME280;10371;49.042;8.002;2023-05-29T02:26:12;99886.81;;;15.24;67.91
20424;BME280;10371;49.042;8.002;2023-05-29T02:27:12;99882.72;;;15.21;67.89
20424;BME280;10371;49.042;8.002;2023-05-29T02:28:12;99888.78;;;15.22;67.75
20424;BME280;10371;49.042;8.002;2023-05-29T02:29:13;99888.09;;;15.19;68.01
20424;BME280;10371;49.042;8.002;2023-05-29T02:30:13;99894.59;;;15.15;68.11
20424;BME280;10371;49.042;8.002;2023-05-29T02:31:13;99883.47;;;15.13;68.21
20424;BME280;10371;49.042;8.002;2023-05-29T02:32:14;99884.72;;;15.09;68.61
20424;BME280;10371;49.042;8.002;2023-05-29T02:33:14;99883.41;;;15.05;68.82
20424;BME280;10371;49.042;8.002;2023-05-29T02:34:14;99887.81;;;15.05;68.59
20424;BME280;10371;49.042;8.002;2023-05-29T02:35:15;99880.09;;;15.03;68.65
20424;BME280;10371;49.042;8.002;2023-05-29T02:36:15;99881.22;;;15.01;68.80
20424;BME280;10371;49.042;8.002;2023-05-29T02:37:16;99876.28;;;14.97;68.72
20424;BME280;10371;49.042;8.002;2023-05-29T02:38:16;99887.75;;;14.96;68.86
20424;BME280;10371;49.042;8.002;2023-05-29T02:39:17;99879.88;;;14.96;68.58
20424;BME280;10371;49.042;8.002;2023-05-29T02:40:18;99881.53;;;14.97;68.66
20424;BME280;10371;49.042;8.002;2023-05-29T02:41:19;99871.13;;;14.88;68.82
20424;BME280;10371;49.042;8.002;2023-05-29T02:42:19;99882.25;;;14.90;69.06
20424;BME280;10371;49.042;8.002;2023-05-29T02:43:21;99876.00;;;14.83;69.17
20424;BME280;10371;49.042;8.002;2023-05-29T02:44:22;99878.75;;;14.81;69.46
20424;BME280;10371;49.042;8.002;2023-05-29T02:45:22;99877.25;;;14.79;69.48
20424;BME280;10371;49.042;8.002;2023-05-29T02:46:22;99885.59;;;14.74;69.68
20424;BME280;10371;49.042;8.002;2023-05-29T02:47:22;99884.06;;;14.71;69.86
20424;BME280;10371;49.042;8.002;2023-05-29T02:48:23;99880.09;;;14.67;69.79
20424;BME280;10371;49.042;8.002;2023-05-29T02:49:23;99883.41;;;14.69;69.92
20424;BME280;10371;49.042;8.002;2023-05-29T02:50:23;99878.06;;;14.61;70.16
20424;BME280;10371;49.042;8.002;2023-05-29T02:51:24;99872.44;;;14.56;70.24
20424;BME280;10371;49.042;8.002;2023-05-29T02:52:24;99881.81;;;14.59;70.37
20424;BME280;10371;49.042;8.002;2023-05-29T02:53:24;99874.38;;;14.54;70.08
20424;BME280;10371;49.042;8.002;2023-05-29T02:54:25;99881.50;;;14.62;70.13
20424;BME280;10371;49.042;8.002;2023-05-29T02:55:26;99877.09;;;14.62;70.29
20424;BME280;10371;49.042;8.002;2023-05-29T02:56:26;99880.81;;;14.60;70.08
20424;BME280;10371;49.042;8.002;2023-05-29T02:57:27;99879.06;;;14.60;69.96
20424;BME280;10371;49.042;8.002;2023-05-29T02:58:27;99877.63;;;14.66;69.59
20424;BME280;10371;49.042;8.002;2023-05-29T02:59:27;99881.22;;;14.65;69.55
20424;BME280;10371;49.042;8.002;2023-05-29T03:00:28;99882.03;;;14.65;69.61
20424;BME280;10371;49.042;8.002;2023-05-29T03:01:28;99884.66;;;14.65;69.77
20424;BME280;10371;49.042;8.002;2023-05-29T03:02:28;99882.19;;;14.64;69.88
20424;BME280;10371;49.042;8.002;2023-05-29T03:03:29;99879.06;;;14.60;70.03
20424;BME280;10371;49.042;8.002;2023-05-29T03:04:29;99880.69;;;14.61;70.18
20424;BME280;10371;49.042;8.002;2023-05-29T03:05:30;99875.88;;;14.57;70.21
20424;BME280;10371;49.042;8.002;2023-05-29T03:06:30;99871.38;;;14.49;70.46
20424;BME280;10371;49.042;8.002;2023-05-29T03:07:32;99887.53;;;14.44;70.66
20424;BME280;10371;49.042;8.002;2023-05-29T03:08:32;99878.59;;;14.37;71.09
20424;BME280;10371;49.042;8.002;2023-05-29T03:09:33;99880.00;;;14.31;71.16
20424;BME280;10371;49.042;8.002;2023-05-29T03:10:33;99881.97;;;14.29;71.28
20424;BME280;10371;49.042;8.002;2023-05-29T03:11:34;99887.50;;;14.26;71.49
20424;BME280;10371;49.042;8.002;2023-05-29T03:12:37;99878.97;;;14.24;71.58
20424;BME280;10371;49.042;8.002;2023-05-29T03:13:37;99876.63;;;14.21;71.60
20424;BME280;10371;49.042;8.002;2023-05-29T03:14:38;99884.50;;;14.21;71.69
20424;BME280;10371;49.042;8.002;2023-05-29T03:15:38;99873.47;;;14.18;71.63
20424;BME280;10371;49.042;8.002;2023-05-29T03:16:39;99873.19;;;14.21;71.67
20424;BME280;10371;49.042;8.002;2023-05-29T03:17:40;99871.00;;;14.16;71.89
20424;BME280;10371;49.042;8.002;2023-05-29T03:18:40;99874.59;;;14.15;71.93
20424;BME280;10371;49.042;8.002;2023-05-29T03:19:41;99876.25;;;14.16;71.69
20424;BME280;10371;49.042;8.002;2023-05-29T03:20:41;99882.16;;;14.18;71.69
20424;BME280;10371;49.042;8.002;2023-05-29T03:21:41;99883.13;;;14.17;71.62
20424;BME280;10371;49.042;8.002;2023-05-29T03:22:42;99873.31;;;14.19;71.74
20424;BME280;10371;49.042;8.002;2023-05-29T03:23:42;99875.94;;;14.19;71.61
20424;BME280;10371;49.042;8.002;2023-05-29T03:24:43;99885.06;;;14.15;71.92
20424;BME280;10371;49.042;8.002;2023-05-29T03:25:43;99878.47;;;14.11;71.93
20424;BME280;10371;49.042;8.002;2023-05-29T03:26:43;99879.84;;;14.15;71.85
20424;BME280;10371;49.042;8.002;2023-05-29T03:27:44;99880.09;;;14.12;72.07
20424;BME280;10371;49.042;8.002;2023-05-29T03:28:44;99878.75;;;14.08;72.03
20424;BME280;10371;49.042;8.002;2023-05-29T03:29:44;99881.50;;;14.06;72.26
20424;BME280;10371;49.042;8.002;2023-05-29T03:30:45;99869.81;;;14.01;72.49
20424;BME280;10371;49.042;8.002;2023-05-29T03:31:45;99873.53;;;13.98;72.64
20424;BME280;10371;49.042;8.002;2023-05-29T03:32:45;99877.97;;;13.98;72.66
20424;BME280;10371;49.042;8.002;2023-05-29T03:33:47;99881.28;;;14.00;72.65
20424;BME280;10371;49.042;8.002;2023-05-29T03:34:47;99877.44;;;13.94;72.80
20424;BME280;10371;49.042;8.002;2023-05-29T03:35:48;99883.50;;;13.95;72.83
20424;BME280;10371;49.042;8.002;2023-05-29T03:36:48;99880.19;;;13.93;72.56
20424;BME280;10371;49.042;8.002;2023-05-29T03:37:49;99887.50;;;13.99;72.52
20424;BME280;10371;49.042;8.002;2023-05-29T03:38:49;99871.81;;;13.89;72.59
20424;BME280;10371;49.042;8.002;2023-05-29T03:39:49;99884.19;;;13.97;72.44
20424;BME280;10371;49.042;8.002;2023-05-29T03:40:50;99885.00;;;13.97;72.71
20424;BME280;10371;49.042;8.002;2023-05-29T03:41:50;99885.97;;;13.96;72.60
20424;BME280;10371;49.042;8.002;2023-05-29T03:42:50;99880.88;;;13.95;72.60
20424;BME280;10371;49.042;8.002;2023-05-29T03:43:51;99886.78;;;13.97;72.72
20424;BME280;10371;49.042;8.002;2023-05-29T03:44:51;99885.81;;;13.98;72.72
20424;BME280;10371;49.042;8.002;2023-05-29T03:45:51;99886.22;;;14.03;72.39
20424;BME280;10371;49.042;8.002;2023-05-29T03:46:51;99885.53;;;14.01;72.50
20424;BME280;10371;49.042;8.002;2023-05-29T03:47:52;99885.69;;;13.99;72.70
20424;BME280;10371;49.042;8.002;2023-05-29T03:48:52;99888.53;;;14.06;72.62
20424;BME280;10371;49.042;8.002;2023-05-29T03:49:52;99889.25;;;13.98;72.87
20424;BME280;10371;49.042;8.002;2023-05-29T03:50:52;99885.41;;;13.93;72.99
20424;BME280;10371;49.042;8.002;2023-05-29T03:51:53;99886.41;;;13.92;73.13
20424;BME280;10371;49.042;8.002;2023-05-29T03:52:53;99890.28;;;13.88;73.14
20424;BME280;10371;49.042;8.002;2023-05-29T03:53:53;99891.09;;;13.88;73.10
20424;BME280;10371;49.042;8.002;2023-05-29T03:54:54;99892.06;;;13.87;73.17
20424;BME280;10371;49.042;8.002;2023-05-29T03:55:54;99889.44;;;13.87;73.35
20424;BME280;10371;49.042;8.002;2023-05-29T03:56:54;99879.41;;;13.82;73.39
20424;BME280;10371;49.042;8.002;2023-05-29T03:57:54;99883.50;;;13.95;73.37
20424;BME280;10371;49.042;8.002;2023-05-29T03:58:55;99890.22;;;13.97;73.34
20424;BME280;10371;49.042;8.002;2023-05-29T03:59:56;99890.66;;;13.93;73.46
20424;BME280;10371;49.042;8.002;2023-05-29T04:00:56;99890.28;;;13.88;73.56
20424;BME280;10371;49.042;8.002;2023-05-29T04:01:56;99896.75;;;13.93;73.57
20424;BME280;10371;49.042;8.002;2023-05-29T04:02:56;99899.47;;;13.92;73.59
20424;BME280;10371;49.042;8.002;2023-05-29T04:03:57;99896.19;;;13.90;73.75
20424;BME280;10371;49.042;8.002;2023-05-29T04:04:57;99897.16;;;13.89;73.78
20424;BME280;10371;49.042;8.002;2023-05-29T04:05:58;99897.44;;;13.85;73.99
20424;BME280;10371;49.042;8.002;2023-05-29T04:06:58;99898.97;;;13.88;74.10
20424;BME280;10371;49.042;8.002;2023-05-29T04:08:00;99898.97;;;13.88;74.24
20424;BME280;10371;49.042;8.002;2023-05-29T04:09:00;99900.59;;;13.89;73.92
20424;BME280;10371;49.042;8.002;2023-05-29T04:10:01;99907.22;;;13.93;73.88
20424;BME280;10371;49.042;8.002;2023-05-29T04:11:01;99905.41;;;13.94;73.74
20424;BME280;10371;49.042;8.002;2023-05-29T04:12:03;99904.31;;;13.96;73.49
20424;BME280;10371;49.042;8.002;2023-05-29T04:13:05;99906.34;;;14.02;73.37
20424;BME280;10371;49.042;8.002;2023-05-29T04:14:08;99903.97;;;14.09;73.08
20424;BME280;10371;49.042;8.002;2023-05-29T04:15:09;99912.09;;;14.06;72.96
20424;BME280;10371;49.042;8.002;2023-05-29T04:16:09;99904.41;;;14.04;72.96
20424;BME280;10371;49.042;8.002;2023-05-29T04:17:09;99912.91;;;14.06;73.17
20424;BME280;10371;49.042;8.002;2023-05-29T04:18:10;99912.38;;;14.03;73.41
20424;BME280;10371;49.042;8.002;2023-05-29T04:19:10;99914.03;;;14.04;73.64
20424;BME280;10371;49.042;8.002;2023-05-29T04:20:11;99911.81;;;14.09;73.71
20424;BME280;10371;49.042;8.002;2023-05-29T04:21:11;99920.06;;;14.14;73.18
20424;BME280;10371;49.042;8.002;2023-05-29T04:22:12;99916.34;;;14.17;73.16
20424;BME280;10371;49.042;8.002;2023-05-29T04:23:13;99911.91;;;14.17;73.25
20424;BME280;10371;49.042;8.002;2023-05-29T04:24:14;99917.53;;;14.22;73.01
20424;BME280;10371;49.042;8.002;2023-05-29T04:25:15;99919.88;;;14.25;72.80
20424;BME280;10371;49.042;8.002;2023-05-29T04:26:15;99922.34;;;14.27;72.47
20424;BME280;10371;49.042;8.002;2023-05-29T04:27:15;99926.50;;;14.29;72.17
20424;BME280;10371;49.042;8.002;2023-05-29T04:28:16;99921.38;;;14.28;72.33
20424;BME280;10371;49.042;8.002;2023-05-29T04:29:17;99924.69;;;14.30;72.69
20424;BME280;10371;49.042;8.002;2023-05-29T04:30:17;99922.19;;;14.28;72.47
20424;BME280;10371;49.042;8.002;2023-05-29T04:31:18;99930.44;;;14.34;72.53
20424;BME280;10371;49.042;8.002;2023-05-29T04:32:18;99933.16;;;14.42;72.57
20424;BME280;10371;49.042;8.002;2023-05-29T04:33:21;99939.31;;;14.50;72.30
20424;BME280;10371;49.042;8.002;2023-05-29T04:34:23;99933.63;;;14.65;71.57
20424;BME280;10371;49.042;8.002;2023-05-29T04:35:23;99928.16;;;14.76;71.27
20424;BME280;10371;49.042;8.002;2023-05-29T04:36:24;99930.13;;;14.92;70.83
20424;BME280;10371;49.042;8.002;2023-05-29T04:37:25;99937.78;;;15.03;70.47
20424;BME280;10371;49.042;8.002;2023-05-29T04:38:29;99927.50;;;15.10;70.04
20424;BME280;10371;49.042;8.002;2023-05-29T04:39:30;99937.94;;;15.19;69.87
20424;BME280;10371;49.042;8.002;2023-05-29T04:40:30;99940.41;;;15.21;69.51
20424;BME280;10371;49.042;8.002;2023-05-29T04:41:31;99928.78;;;15.24;69.58
20424;BME280;10371;49.042;8.002;2023-05-29T04:42:32;99939.94;;;15.26;69.34
20424;BME280;10371;49.042;8.002;2023-05-29T04:43:33;99940.69;;;15.36;69.33
20424;BME280;10371;49.042;8.002;2023-05-29T04:44:37;99941.28;;;15.48;68.88
20424;BME280;10371;49.042;8.002;2023-05-29T04:45:37;99944.94;;;15.55;69.15
20424;BME280;10371;49.042;8.002;2023-05-29T04:46:37;99945.69;;;15.47;68.85
20424;BME280;10371;49.042;8.002;2023-05-29T04:47:38;99944.66;;;15.40;68.84
20424;BME280;10371;49.042;8.002;2023-05-29T04:48:43;99938.59;;;15.39;69.08
20424;BME280;10371;49.042;8.002;2023-05-29T04:49:44;99948.78;;;15.42;69.10
20424;BME280;10371;49.042;8.002;2023-05-29T04:50:48;99943.38;;;15.44;69.10
20424;BME280;10371;49.042;8.002;2023-05-29T04:51:48;99953.25;;;15.50;69.18
20424;BME280;10371;49.042;8.002;2023-05-29T04:52:52;99952.94;;;15.53;68.95
20424;BME280;10371;49.042;8.002;2023-05-29T04:53:53;99951.97;;;15.54;69.00
20424;BME280;10371;49.042;8.002;2023-05-29T04:54:56;99948.53;;;15.54;69.08
20424;BME280;10371;49.042;8.002;2023-05-29T04:55:56;99954.16;;;15.59;69.06
20424;BME280;10371;49.042;8.002;2023-05-29T04:56:57;99951.88;;;15.64;68.88
20424;BME280;10371;49.042;8.002;2023-05-29T04:57:57;99954.91;;;15.69;68.56
20424;BME280;10371;49.042;8.002;2023-05-29T04:58:57;99959.41;;;15.77;68.64
20424;BME280;10371;49.042;8.002;2023-05-29T04:59:58;99954.84;;;15.87;68.07
20424;BME280;10371;49.042;8.002;2023-05-29T05:00:58;99949.19;;;16.00;67.94
20424;BME280;10371;49.042;8.002;2023-05-29T05:01:59;99967.09;;;16.04;67.68
20424;BME280;10371;49.042;8.002;2023-05-29T05:02:59;99954.13;;;16.03;67.81
20424;BME280;10371;49.042;8.002;2023-05-29T05:04:00;99955.31;;;16.08;67.57
20424;BME280;10371;49.042;8.002;2023-05-29T05:05:00;99969.66;;;15.96;67.74
20424;BME280;10371;49.042;8.002;2023-05-29T05:06:01;99959.69;;;16.00;68.06
20424;BME280;10371;49.042;8.002;2023-05-29T05:07:06;99963.25;;;15.91;68.21
20424;BME280;10371;49.042;8.002;2023-05-29T05:08:06;99963.19;;;16.08;68.35
20424;BME280;10371;49.042;8.002;2023-05-29T05:09:06;99968.81;;;16.14;68.34
20424;BME280;10371;49.042;8.002;2023-05-29T05:10:07;99970.69;;;16.29;68.02
20424;BME280;10371;49.042;8.002;2023-05-29T05:11:07;99968.59;;;16.33;67.78
20424;BME280;10371;49.042;8.002;2023-05-29T05:12:08;99973.56;;;16.18;67.74
20424;BME280;10371;49.042;8.002;2023-05-29T05:13:08;99971.16;;;16.25;68.19
20424;BME280;10371;49.042;8.002;2023-05-29T05:14:09;99980.69;;;16.26;68.07
20424;BME280;10371;49.042;8.002;2023-05-29T05:15:09;99974.63;;;16.25;68.42
20424;BME280;10371;49.042;8.002;2023-05-29T05:16:10;99970.03;;;16.27;68.08
20424;BME280;10371;49.042;8.002;2023-05-29T05:17:10;99971.97;;;16.25;68.39
20424;BME280;10371;49.042;8.002;2023-05-29T05:18:11;99979.03;;;16.25;68.03
20424;BME280;10371;49.042;8.002;2023-05-29T05:19:11;99981.13;;;16.21;68.20
20424;BME280;10371;49.042;8.002;2023-05-29T05:20:11;99972.81;;;16.26;68.33
20424;BME280;10371;49.042;8.002;2023-05-29T05:21:12;99975.13;;;16.29;68.10
20424;BME280;10371;49.042;8.002;2023-05-29T05:22:12;99980.75;;;16.42;67.93
20424;BME280;10371;49.042;8.002;2023-05-29T05:23:12;99976.81;;;16.38;67.62
20424;BME280;10371;49.042;8.002;2023-05-29T05:24:12;99979.97;;;16.50;67.75
20424;BME280;10371;49.042;8.002;2023-05-29T05:25:13;99981.81;;;16.66;67.48
20424;BME280;10371;49.042;8.002;2023-05-29T05:26:14;99982.50;;;16.68;67.35
20424;BME280;10371;49.042;8.002;2023-05-29T05:27:14;99981.34;;;16.70;67.08
20424;BME280;10371;49.042;8.002;2023-05-29T05:28:14;99987.38;;;16.54;66.68
20424;BME280;10371;49.042;8.002;2023-05-29T05:29:15;99974.91;;;16.57;66.44
20424;BME280;10371;49.042;8.002;2023-05-29T05:30:15;99986.56;;;16.54;66.36